Terminal Aerodrome Forecast
Issued by NWS

Home | Current Version | Previous Version | Text Only | Print | Product List | Glossary On
Versions: 1 2 3 4 5 6 7 8 9 10 11 12 13 14
697
FTUS43 KTOP 210520
TAFMHK
TAF
KMHK 210520Z 2106/2206 07005KT P6SM SCT200
     FM211400 19010KT P6SM FEW090 SCT200
     FM211900 18016G24KT P6SM FEW250=

USA.gov is the U.S. government's official web portal to all federal, state and local government web resources and services.